Time;durP1;ratioP1;P1;durP2;ratioP2;P2;SDS_P1;SDS_P2;PMS_P1;PMS_P2;Temp;Humidity;BMP_temperature;BMP_pressure;BME280_temperature;BME280_humidity;BME280_pressure;Samples;Min_cycle;Max_cycle;Signal;HPM_P1;HPM_P2
2021/06/29 00:01:06;;;;;;;10.38;5.45;;;24.10;67.60;;;;;;3139743;28;20163;-81
2021/06/29 00:02:37;;;;;;;15.30;5.30;;;24.10;67.90;;;;;;3138894;28;20411;-81
2021/06/29 00:04:09;;;;;;;11.30;5.28;;;24.10;67.70;;;;;;3139336;28;20060;-81
2021/06/29 00:05:40;;;;;;;7.45;5.22;;;24.10;67.90;;;;;;3151135;28;20056;-80
2021/06/29 00:07:11;;;;;;;7.93;4.82;;;24.10;67.70;;;;;;3151525;28;20045;-80
2021/06/29 00:08:42;;;;;;;9.02;5.60;;;24.10;67.80;;;;;;3152347;28;20041;-80
2021/06/29 00:10:14;;;;;;;6.65;5.20;;;24.10;67.90;;;;;;3152260;28;20063;-82
2021/06/29 00:11:45;;;;;;;9.25;5.70;;;24.10;67.70;;;;;;3153601;28;20044;-81
2021/06/29 00:13:20;;;;;;;9.20;5.25;;;24.10;67.80;;;;;;3153926;28;20048;-81
2021/06/29 00:14:50;;;;;;;8.18;5.10;;;24.10;67.80;;;;;;3154152;28;20064;-81
2021/06/29 00:16:22;;;;;;;7.50;5.40;;;24.00;67.80;;;;;;3153346;28;20044;-81
2021/06/29 00:17:53;;;;;;;5.72;5.22;;;24.10;67.70;;;;;;3154525;28;20061;-81
2021/06/29 00:19:25;;;;;;;7.72;5.88;;;24.00;67.70;;;;;;3150965;28;20060;-81
2021/06/29 00:20:56;;;;;;;8.35;5.65;;;24.00;67.70;;;;;;3141399;28;20052;-81
2021/06/29 00:22:28;;;;;;;9.63;5.68;;;24.00;67.80;;;;;;3141518;28;20049;-81
2021/06/29 00:23:59;;;;;;;6.72;5.50;;;24.00;67.90;;;;;;3141699;28;20430;-81
2021/06/29 00:25:31;;;;;;;7.43;5.25;;;24.00;67.80;;;;;;3140452;28;20049;-81
2021/06/29 00:27:02;;;;;;;13.20;5.70;;;24.00;67.80;;;;;;3141276;28;20061;-80
2021/06/29 00:28:35;;;;;;;9.07;6.35;;;24.00;67.90;;;;;;3140587;28;20045;-81
2021/06/29 00:30:07;;;;;;;9.02;5.78;;;24.00;68.20;;;;;;3141405;28;20045;-81
2021/06/29 00:31:38;;;;;;;8.32;5.55;;;24.00;68.40;;;;;;3143431;28;20179;-80
2021/06/29 00:33:10;;;;;;;6.35;5.15;;;24.00;68.30;;;;;;3145061;28;20053;-81
2021/06/29 00:34:41;;;;;;;9.55;5.20;;;24.00;68.20;;;;;;3145509;28;20056;-81
2021/06/29 00:36:15;;;;;;;8.73;5.47;;;23.90;68.30;;;;;;3144277;28;20045;-80
2021/06/29 00:37:46;;;;;;;9.57;5.75;;;24.00;68.40;;;;;;3144491;28;20159;-80
2021/06/29 00:39:17;;;;;;;10.27;5.82;;;24.00;68.40;;;;;;3143651;28;20083;-80
2021/06/29 00:40:49;;;;;;;7.18;5.40;;;24.00;68.30;;;;;;3143070;28;20041;-80
2021/06/29 00:42:21;;;;;;;8.82;5.50;;;24.00;68.50;;;;;;3143307;28;20048;-81
2021/06/29 00:43:54;;;;;;;8.90;5.32;;;24.00;68.50;;;;;;3143088;28;20483;-80
2021/06/29 00:45:25;;;;;;;8.30;5.78;;;23.90;68.40;;;;;;3143429;28;20056;-82
2021/06/29 00:46:57;;;;;;;11.45;5.53;;;24.00;68.50;;;;;;3143477;28;20053;-81
2021/06/29 00:48:29;;;;;;;7.68;5.80;;;23.90;68.40;;;;;;3141037;28;20083;-81
2021/06/29 00:50:00;;;;;;;8.55;5.63;;;23.90;68.50;;;;;;3140218;28;20049;-80
2021/06/29 00:51:32;;;;;;;29.67;6.70;;;23.90;68.30;;;;;;3142997;28;20051;-81
2021/06/29 00:53:03;;;;;;;26.60;6.72;;;24.00;68.70;;;;;;3142006;28;20057;-81
2021/06/29 00:54:35;;;;;;;30.67;5.68;;;23.90;69.30;;;;;;3146102;28;20052;-81
2021/06/29 00:56:13;;;;;;;29.58;6.35;;;23.90;68.80;;;;;;3144500;28;20049;-82
2021/06/29 00:57:48;;;;;;;21.95;5.93;;;23.90;68.80;;;;;;3142805;28;20112;-81
2021/06/29 00:59:21;;;;;;;17.77;6.47;;;23.90;68.90;;;;;;3143083;28;20103;-81
2021/06/29 01:00:53;;;;;;;;;;;23.90;68.70;;;;;;3144595;28;20056;-81
2021/06/29 01:02:24;;;;;;;18.17;5.10;;;23.90;68.60;;;;;;3144192;28;20296;-81
2021/06/29 01:03:56;;;;;;;18.02;6.00;;;23.90;68.60;;;;;;3144214;28;20041;-81
2021/06/29 01:05:27;;;;;;;16.27;5.72;;;23.90;68.70;;;;;;3153453;28;20060;-81
2021/06/29 01:06:59;;;;;;;18.35;6.03;;;23.90;68.70;;;;;;3149812;28;20052;-81
2021/06/29 01:08:31;;;;;;;14.93;5.17;;;23.80;68.80;;;;;;3143814;28;20044;-81
2021/06/29 01:10:05;;;;;;;12.32;6.15;;;23.80;68.80;;;;;;3144907;28;20507;-82
2021/06/29 01:11:36;;;;;;;19.08;5.93;;;23.80;68.70;;;;;;3143503;28;20106;-81
2021/06/29 01:13:07;;;;;;;11.60;5.63;;;23.80;68.70;;;;;;3142570;28;20053;-81
2021/06/29 01:14:41;;;;;;;9.35;5.20;;;23.90;68.50;;;;;;3143373;28;20076;-80
2021/06/29 01:16:13;;;;;;;14.07;5.78;;;23.80;68.60;;;;;;3144189;28;20053;-81
2021/06/29 01:17:44;;;;;;;7.45;5.78;;;23.80;68.70;;;;;;3143565;28;20049;-81
2021/06/29 01:19:18;;;;;;;11.57;4.97;;;23.80;68.70;;;;;;3143150;28;20044;-81
2021/06/29 01:20:51;;;;;;;10.70;5.40;;;23.80;68.80;;;;;;3143650;28;20533;-81
2021/06/29 01:22:25;;;;;;;;;;;23.80;68.70;;;;;;3143946;28;20102;-80
2021/06/29 01:23:58;;;;;;;8.40;5.68;;;23.80;68.50;;;;;;3143872;28;19932;-81
2021/06/29 01:25:31;;;;;;;13.00;5.82;;;23.80;68.50;;;;;;3143233;28;20055;-81
2021/06/29 01:27:15;;;;;;;8.18;5.03;;;23.80;68.70;;;;;;3144249;28;20052;-81
2021/06/29 01:28:53;;;;;;;13.02;5.82;;;23.80;68.50;;;;;;3144842;28;20041;-81
2021/06/29 01:32:14;;;;;;;12.27;5.53;;;23.80;68.70;;;;;;3145061;28;20052;-81
2021/06/29 01:33:45;;;;;;;8.25;6.00;;;23.80;68.80;;;;;;3144971;28;20769;-81
2021/06/29 01:35:17;;;;;;;7.40;5.32;;;23.80;68.80;;;;;;3144802;28;20064;-81
2021/06/29 01:36:50;;;;;;;8.65;5.65;;;23.80;68.70;;;;;;3143439;28;20051;-82
2021/06/29 01:38:20;;;;;;;;;;;23.80;68.80;;;;;;3144318;28;20051;-81
2021/06/29 01:39:54;;;;;;;6.55;5.20;;;23.80;68.70;;;;;;3143884;28;19928;-81
2021/06/29 01:41:27;;;;;;;9.38;5.78;;;23.80;68.80;;;;;;3144575;28;20049;-81
2021/06/29 01:42:59;;;;;;;6.22;5.35;;;23.80;68.70;;;;;;3142295;28;20063;-81
2021/06/29 01:44:33;;;;;;;9.68;5.60;;;23.80;68.80;;;;;;3142645;28;20051;-82
2021/06/29 01:46:05;;;;;;;7.57;5.72;;;23.80;68.70;;;;;;3141940;28;20079;-81
2021/06/29 01:47:50;;;;;;;6.53;5.53;;;23.80;68.70;;;;;;3142460;28;20055;-81
2021/06/29 01:49:24;;;;;;;7.95;6.00;;;23.80;68.70;;;;;;3141519;28;20422;-81
2021/06/29 01:50:56;;;;;;;7.25;5.40;;;23.80;68.80;;;;;;3141515;28;20098;-80
2021/06/29 01:52:28;;;;;;;7.70;5.80;;;23.80;68.80;;;;;;3141906;28;20045;-81
2021/06/29 01:54:00;;;;;;;5.93;5.30;;;23.80;68.90;;;;;;3141731;28;20296;-81
2021/06/29 01:55:32;;;;;;;5.80;5.20;;;23.70;68.80;;;;;;3141002;28;20049;-81
2021/06/29 01:57:04;;;;;;;6.05;5.45;;;23.80;68.70;;;;;;3141434;28;20090;-81
2021/06/29 01:58:35;;;;;;;6.70;5.72;;;23.80;68.80;;;;;;3142851;28;20057;-81
2021/06/29 02:00:08;;;;;;;6.90;5.68;;;23.80;68.90;;;;;;3142830;28;20049;-80
2021/06/29 02:01:41;;;;;;;9.30;5.45;;;23.80;68.90;;;;;;3141670;28;20056;-81
2021/06/29 02:03:12;;;;;;;7.22;5.45;;;23.80;68.90;;;;;;3142098;28;20052;-81
2021/06/29 02:04:43;;;;;;;11.10;5.82;;;23.80;69.00;;;;;;3145983;28;20044;-80
2021/06/29 02:06:15;;;;;;;7.13;5.53;;;23.80;68.80;;;;;;3152960;28;20514;-81
2021/06/29 02:07:47;;;;;;;7.68;5.72;;;23.70;68.90;;;;;;3153576;28;20080;-81
2021/06/29 02:09:19;;;;;;;;;;;23.70;68.80;;;;;;3153529;28;20048;-81
2021/06/29 02:10:50;;;;;;;9.60;5.57;;;23.70;69.10;;;;;;3145610;28;19921;-80
2021/06/29 02:12:22;;;;;;;12.10;6.00;;;23.70;69.10;;;;;;3141110;28;20060;-81
2021/06/29 02:13:53;;;;;;;7.55;5.45;;;23.70;69.10;;;;;;3140007;28;20056;-81
2021/06/29 02:15:25;;;;;;;5.57;5.07;;;23.70;69.10;;;;;;3139045;28;20053;-81
2021/06/29 02:16:57;;;;;;;6.30;5.28;;;23.70;69.00;;;;;;3139493;28;20049;-80
2021/06/29 02:18:28;;;;;;;7.50;5.60;;;23.70;69.00;;;;;;3140308;28;20072;-81
2021/06/29 02:19:59;;;;;;;10.00;5.60;;;23.80;69.00;;;;;;3141615;28;20068;-81
2021/06/29 02:23:04;;;;;;;8.75;4.93;;;23.80;69.00;;;;;;3168747;22;20059;-80
2021/06/29 02:24:36;;;;;;;6.05;5.30;;;23.80;68.90;;;;;;3150062;28;20422;-80
2021/06/29 02:26:07;;;;;;;10.65;5.88;;;23.70;68.90;;;;;;3149433;28;20518;-79
2021/06/29 02:27:39;;;;;;;8.02;5.57;;;23.70;68.90;;;;;;3149948;28;20048;-80
2021/06/29 02:29:11;;;;;;;8.90;5.53;;;23.70;68.80;;;;;;3149519;28;20076;-79
2021/06/29 02:30:42;;;;;;;7.95;5.10;;;23.70;68.80;;;;;;3149574;28;20044;-80
2021/06/29 02:32:13;;;;;;;9.00;5.60;;;23.70;68.80;;;;;;3144049;28;20486;-80
2021/06/29 02:33:44;;;;;;;11.85;5.57;;;23.80;68.90;;;;;;3137083;28;20052;-80
2021/06/29 02:35:16;;;;;;;12.23;6.07;;;23.70;68.80;;;;;;3137209;28;20061;-81
2021/06/29 02:36:47;;;;;;;13.30;6.07;;;23.70;69.00;;;;;;3137239;28;20049;-80
2021/06/29 02:38:22;;;;;;;7.90;5.80;;;23.80;69.00;;;;;;3137204;28;20045;-80
2021/06/29 02:39:53;;;;;;;7.75;5.47;;;23.80;69.50;;;;;;3137179;28;20483;-80
2021/06/29 02:41:25;;;;;;;7.82;5.78;;;23.80;68.80;;;;;;3136923;28;20053;-79
2021/06/29 02:42:57;;;;;;;7.30;5.65;;;23.70;68.70;;;;;;3136906;28;20056;-81
2021/06/29 02:44:30;;;;;;;5.85;5.35;;;23.70;68.70;;;;;;3137381;28;20198;-81
2021/06/29 02:46:01;;;;;;;6.05;5.03;;;23.70;68.60;;;;;;3136894;28;20410;-80
2021/06/29 02:47:33;;;;;;;6.80;5.47;;;23.80;68.60;;;;;;3136937;28;20045;-79
2021/06/29 02:49:04;;;;;;;7.55;5.20;;;23.80;68.60;;;;;;3137412;28;20291;-80
2021/06/29 02:50:36;;;;;;;5.88;5.25;;;23.70;68.60;;;;;;3137083;28;20091;-80
2021/06/29 02:52:08;;;;;;;6.22;5.00;;;23.70;68.60;;;;;;3136860;28;20056;-80
2021/06/29 02:53:40;;;;;;;7.43;5.43;;;23.70;68.50;;;;;;3136848;28;20076;-80
2021/06/29 02:55:13;;;;;;;;;;;23.70;68.50;;;;;;3136259;28;20072;-80
2021/06/29 02:56:44;;;;;;;6.85;5.40;;;23.70;68.50;;;;;;3136706;28;19921;-80
2021/06/29 02:58:15;;;;;;;6.20;5.60;;;23.70;68.50;;;;;;3136756;28;20175;-81
2021/06/29 02:59:47;;;;;;;5.72;5.22;;;23.70;68.40;;;;;;3137007;28;20064;-79
2021/06/29 03:01:18;;;;;;;9.30;5.55;;;23.70;68.80;;;;;;3136702;28;20056;-80
2021/06/29 03:02:49;;;;;;;8.32;5.57;;;23.70;68.40;;;;;;3136578;28;20060;-80
2021/06/29 03:04:21;;;;;;;6.10;5.50;;;23.70;68.20;;;;;;3136660;28;20510;-80
2021/06/29 03:05:52;;;;;;;8.75;5.78;;;23.70;68.20;;;;;;3137170;28;20507;-80
2021/06/29 03:07:24;;;;;;;6.55;5.68;;;23.70;68.30;;;;;;3136667;28;20080;-81
2021/06/29 03:08:56;;;;;;;8.02;6.35;;;23.70;68.20;;;;;;3136851;28;20045;-80
2021/06/29 03:10:28;;;;;;;9.83;5.90;;;23.70;68.10;;;;;;3136703;28;20488;-80
2021/06/29 03:11:59;;;;;;;7.45;6.00;;;23.70;68.40;;;;;;3136773;28;20087;-80
2021/06/29 03:13:30;;;;;;;6.40;5.78;;;23.70;68.40;;;;;;3136728;28;20056;-80
2021/06/29 03:15:02;;;;;;;9.57;6.70;;;23.70;68.40;;;;;;3136754;28;20041;-79
2021/06/29 03:16:33;;;;;;;11.35;6.10;;;23.70;68.60;;;;;;3136831;28;20053;-80
2021/06/29 03:18:05;;;;;;;9.13;5.82;;;23.70;68.50;;;;;;3136717;28;20080;-80
2021/06/29 03:19:36;;;;;;;6.82;5.97;;;23.70;68.50;;;;;;3136968;28;20052;-80
2021/06/29 03:21:08;;;;;;;7.00;6.00;;;23.70;68.50;;;;;;3136816;28;20052;-80
2021/06/29 03:22:40;;;;;;;9.10;6.00;;;23.70;68.50;;;;;;3136528;28;20056;-80
2021/06/29 03:24:12;;;;;;;8.82;6.20;;;23.70;68.50;;;;;;3136593;28;20489;-80
2021/06/29 03:25:43;;;;;;;;;;;23.70;68.50;;;;;;3136749;28;20041;-80
2021/06/29 03:27:15;;;;;;;17.65;6.57;;;23.70;68.50;;;;;;3136419;28;19917;-80
2021/06/29 03:28:46;;;;;;;11.50;6.80;;;23.70;68.60;;;;;;3136721;28;20083;-79
2021/06/29 03:30:19;;;;;;;12.02;6.70;;;23.70;68.50;;;;;;3136563;28;20087;-80
2021/06/29 03:31:50;;;;;;;15.82;6.72;;;23.70;68.40;;;;;;3136277;28;20087;-80
2021/06/29 03:33:22;;;;;;;12.50;6.80;;;23.60;68.40;;;;;;3136632;28;20076;-80
2021/06/29 03:34:53;;;;;;;18.42;7.00;;;23.60;68.40;;;;;;3136366;28;20132;-81
2021/06/29 03:36:25;;;;;;;9.07;6.55;;;23.60;68.50;;;;;;3136715;28;20072;-80
2021/06/29 03:37:57;;;;;;;16.20;7.43;;;23.60;68.40;;;;;;3136284;28;20045;-80
2021/06/29 03:39:30;;;;;;;11.88;7.05;;;23.60;68.50;;;;;;3136192;28;20127;-80
2021/06/29 03:41:01;;;;;;;12.98;6.95;;;23.60;68.30;;;;;;3136123;28;20170;-81
2021/06/29 03:42:33;;;;;;;10.95;7.38;;;23.60;68.40;;;;;;3135903;28;20504;-80
2021/06/29 03:44:05;;;;;;;12.40;7.60;;;23.60;68.40;;;;;;3135756;28;20100;-81
2021/06/29 03:45:36;;;;;;;13.93;7.65;;;23.60;68.30;;;;;;3135926;28;20072;-80
2021/06/29 03:47:07;;;;;;;11.05;7.65;;;23.60;68.30;;;;;;3136040;28;20407;-80
2021/06/29 03:48:39;;;;;;;10.75;7.75;;;23.60;68.40;;;;;;3136200;28;20076;-80
2021/06/29 03:50:12;;;;;;;11.85;7.68;;;23.60;68.30;;;;;;3136011;28;20049;-81
2021/06/29 03:51:44;;;;;;;10.13;7.35;;;23.60;68.30;;;;;;3135720;28;20464;-80
2021/06/29 03:53:15;;;;;;;9.68;7.20;;;23.60;68.30;;;;;;3135535;28;20049;-80
2021/06/29 03:54:48;;;;;;;9.32;7.68;;;23.60;68.30;;;;;;3136028;28;20083;-80
2021/06/29 03:56:28;;;;;;;;;;;23.60;68.30;;;;;;3136478;28;20056;-80
2021/06/29 03:57:59;;;;;;;11.25;7.18;;;23.60;68.40;;;;;;3136024;28;20294;-80
2021/06/29 03:59:31;;;;;;;8.57;7.20;;;23.60;68.40;;;;;;3136014;28;20049;-80
2021/06/29 04:01:02;;;;;;;11.05;7.47;;;23.60;68.40;;;;;;3135406;28;20095;-80
2021/06/29 04:02:34;;;;;;;8.40;7.55;;;23.60;68.40;;;;;;3135988;28;20495;-80
2021/06/29 04:04:06;;;;;;;10.60;7.40;;;23.60;68.30;;;;;;3136301;28;20571;-80
2021/06/29 04:05:37;;;;;;;8.68;6.95;;;23.60;68.50;;;;;;3135731;28;20053;-81
2021/06/29 04:07:09;;;;;;;8.25;7.15;;;23.60;68.50;;;;;;3136082;28;20084;-80
2021/06/29 04:08:40;;;;;;;8.03;7.17;;;23.60;68.70;;;;;;3135930;28;20060;-80
2021/06/29 04:10:13;;;;;;;8.07;7.13;;;23.60;68.70;;;;;;3135905;28;20071;-81
2021/06/29 04:11:45;;;;;;;8.13;7.05;;;23.60;68.60;;;;;;3135992;28;20041;-80
2021/06/29 04:13:15;;;;;;;11.52;7.03;;;23.60;68.60;;;;;;3135827;28;20048;-80
2021/06/29 04:14:47;;;;;;;11.40;7.40;;;23.60;68.70;;;;;;3135548;28;20036;-80
2021/06/29 04:16:18;;;;;;;9.40;7.22;;;23.60;68.90;;;;;;3135876;28;20083;-81
2021/06/29 04:17:49;;;;;;;12.38;6.88;;;23.60;68.70;;;;;;3136107;28;20415;-80
2021/06/29 04:19:21;;;;;;;8.80;6.65;;;23.60;68.90;;;;;;3136382;28;20077;-80
2021/06/29 04:20:52;;;;;;;12.30;6.90;;;23.60;68.70;;;;;;3135706;28;20077;-81
2021/06/29 04:22:23;;;;;;;10.73;6.47;;;23.60;68.70;;;;;;3135718;28;20080;-80
2021/06/29 04:23:55;;;;;;;10.98;6.57;;;23.60;68.80;;;;;;3136212;28;20045;-80
2021/06/29 04:25:28;;;;;;;10.65;6.57;;;23.60;68.90;;;;;;3136003;28;20526;-79
2021/06/29 04:26:59;;;;;;;9.15;6.85;;;23.60;68.90;;;;;;3136278;28;20088;-80
2021/06/29 04:28:31;;;;;;;11.48;6.45;;;23.60;68.90;;;;;;3136330;28;20053;-81
2021/06/29 04:30:03;;;;;;;7.93;6.38;;;23.60;68.80;;;;;;3136233;28;20078;-80
2021/06/29 04:31:35;;;;;;;7.40;6.22;;;23.60;68.90;;;;;;3136407;28;20557;-81
2021/06/29 04:33:06;;;;;;;10.30;6.50;;;23.60;68.90;;;;;;3136715;28;20467;-80
2021/06/29 04:34:37;;;;;;;9.82;6.55;;;23.60;68.90;;;;;;3136155;28;20048;-81
2021/06/29 04:36:09;;;;;;;17.40;6.93;;;23.60;68.90;;;;;;3135595;28;20084;-80
2021/06/29 04:37:40;;;;;;;9.20;6.07;;;23.60;69.10;;;;;;3135480;28;20083;-80
2021/06/29 04:39:12;;;;;;;21.80;6.75;;;23.60;69.10;;;;;;3135857;28;20538;-80
2021/06/29 04:40:44;;;;;;;15.23;6.38;;;23.70;69.10;;;;;;3135502;28;20083;-81
2021/06/29 04:42:16;;;;;;;8.20;6.47;;;23.60;69.00;;;;;;3135828;28;20056;-80
2021/06/29 04:43:47;;;;;;;7.50;6.15;;;23.70;68.90;;;;;;3135640;28;20080;-81
2021/06/29 04:45:18;;;;;;;9.20;7.00;;;23.70;68.90;;;;;;3135119;28;20080;-79
2021/06/29 04:46:50;;;;;;;8.00;6.53;;;23.60;68.90;;;;;;3135514;28;20675;-80
2021/06/29 04:48:22;;;;;;;10.50;6.93;;;23.60;68.90;;;;;;3135801;28;20049;-81
2021/06/29 04:49:55;;;;;;;9.38;6.53;;;23.60;68.90;;;;;;3135680;28;20484;-81
2021/06/29 04:51:27;;;;;;;7.32;6.15;;;23.60;68.80;;;;;;3135602;28;20053;-80
2021/06/29 04:52:58;;;;;;;7.68;6.20;;;23.60;68.90;;;;;;3135697;28;20084;-81
2021/06/29 04:54:29;;;;;;;9.38;6.43;;;23.60;68.80;;;;;;3135603;28;20155;-80
2021/06/29 04:56:02;;;;;;;8.10;6.32;;;23.60;68.90;;;;;;3135515;28;20139;-82
2021/06/29 04:57:33;;;;;;;;;;;23.60;69.00;;;;;;3135911;28;20076;-80
2021/06/29 04:59:05;;;;;;;13.30;6.05;;;23.60;69.00;;;;;;3135930;28;20374;-80
2021/06/29 05:00:38;;;;;;;12.73;6.60;;;23.60;69.00;;;;;;3136096;28;20515;-79
2021/06/29 05:02:09;;;;;;;13.43;5.93;;;23.60;69.20;;;;;;3136094;28;20049;-79
2021/06/29 05:03:41;;;;;;;7.28;6.32;;;23.60;69.20;;;;;;3136251;28;20099;-81
2021/06/29 05:05:13;;;;;;;18.90;6.60;;;23.60;69.10;;;;;;3136800;28;20060;-81
2021/06/29 05:06:45;;;;;;;15.00;6.57;;;23.60;69.30;;;;;;3137592;28;20103;-80
2021/06/29 05:08:17;;;;;;;8.77;6.07;;;23.70;69.40;;;;;;3136413;28;20076;-80
2021/06/29 05:09:47;;;;;;;10.70;6.03;;;23.60;69.10;;;;;;3136423;28;20045;-78
2021/06/29 05:11:20;;;;;;;25.50;6.07;;;23.60;69.00;;;;;;3136000;28;20307;-80
2021/06/29 05:12:51;;;;;;;;;;;23.60;69.20;;;;;;3136289;28;20467;-80
2021/06/29 05:14:22;;;;;;;15.73;5.90;;;23.60;69.10;;;;;;3136350;28;19924;-79
2021/06/29 05:15:54;;;;;;;13.30;6.22;;;23.60;69.20;;;;;;3135022;28;20076;-81
2021/06/29 05:17:25;;;;;;;13.77;6.20;;;23.60;69.20;;;;;;3136025;28;20045;-79
2021/06/29 05:18:56;;;;;;;10.23;6.30;;;23.60;69.40;;;;;;3137644;28;20084;-80
2021/06/29 05:20:27;;;;;;;13.95;6.53;;;23.60;69.40;;;;;;3138244;28;20048;-80
2021/06/29 05:21:59;;;;;;;10.80;5.95;;;23.60;69.30;;;;;;3137281;28;20123;-79
2021/06/29 05:23:30;;;;;;;9.02;5.82;;;23.60;69.40;;;;;;3138082;28;20052;-79
2021/06/29 05:25:02;;;;;;;12.32;5.75;;;23.60;69.40;;;;;;3138024;28;20049;-78
2021/06/29 05:26:35;;;;;;;10.45;5.78;;;23.60;69.50;;;;;;3137239;28;20045;-80
2021/06/29 05:28:07;;;;;;;;;;;23.60;69.50;;;;;;3137777;28;20084;-81
2021/06/29 05:29:38;;;;;;;12.40;6.38;;;23.60;69.50;;;;;;3137411;28;20386;-81
2021/06/29 05:31:09;;;;;;;12.82;5.45;;;23.60;69.60;;;;;;3137327;28;20048;-81
2021/06/29 05:32:41;;;;;;;11.75;5.75;;;23.60;69.60;;;;;;3137430;28;20407;-81
2021/06/29 05:34:12;;;;;;;12.88;5.80;;;23.60;69.60;;;;;;3137519;28;20045;-81
2021/06/29 05:35:44;;;;;;;7.82;5.80;;;23.60;69.60;;;;;;3136937;28;20083;-80
2021/06/29 05:37:14;;;;;;;13.45;6.03;;;23.60;69.60;;;;;;3137488;28;20080;-82
2021/06/29 05:38:46;;;;;;;12.20;6.03;;;23.60;69.70;;;;;;3137432;28;20052;-81
2021/06/29 05:40:17;;;;;;;9.98;5.70;;;23.60;69.60;;;;;;3137382;28;20083;-80
2021/06/29 05:41:50;;;;;;;12.15;5.60;;;23.60;69.60;;;;;;3136653;28;20542;-80
2021/06/29 05:43:22;;;;;;;;;;;23.60;69.60;;;;;;3137573;28;20531;-82
2021/06/29 05:44:53;;;;;;;32.30;7.13;;;23.60;69.80;;;;;;3137109;28;20363;-81
2021/06/29 05:46:25;;;;;;;13.52;5.97;;;23.60;69.60;;;;;;3136808;28;20084;-80
2021/06/29 05:47:57;;;;;;;25.60;5.88;;;23.60;69.50;;;;;;3137090;28;20073;-80
2021/06/29 05:49:28;;;;;;;13.50;6.38;;;23.60;69.50;;;;;;3137116;28;20290;-81
2021/06/29 05:50:59;;;;;;;17.63;6.57;;;23.60;69.60;;;;;;3136547;28;20131;-80
2021/06/29 05:52:31;;;;;;;14.40;5.63;;;23.60;69.70;;;;;;3136907;28;20049;-80
2021/06/29 05:54:03;;;;;;;16.00;5.78;;;23.60;69.70;;;;;;3136866;28;20049;-81
2021/06/29 05:55:33;;;;;;;12.93;5.85;;;23.60;69.80;;;;;;3136843;28;20079;-80
2021/06/29 05:57:07;;;;;;;21.10;5.85;;;23.60;69.70;;;;;;3136879;28;20056;-81
2021/06/29 05:58:38;;;;;;;11.15;5.68;;;23.60;69.80;;;;;;3137022;28;20083;-80
2021/06/29 06:00:11;;;;;;;12.82;5.60;;;23.60;69.80;;;;;;3137068;28;20083;-81
2021/06/29 06:01:43;;;;;;;10.18;5.63;;;23.60;69.80;;;;;;3136163;28;20084;-81
2021/06/29 06:03:15;;;;;;;12.68;5.65;;;23.60;69.80;;;;;;3137095;28;20666;-81
2021/06/29 06:04:47;;;;;;;15.05;6.00;;;23.60;69.80;;;;;;3137016;28;20798;-81
2021/06/29 06:06:17;;;;;;;15.20;6.03;;;23.60;70.00;;;;;;3136664;28;20510;-80
2021/06/29 06:07:52;;;;;;;16.02;6.30;;;23.60;69.90;;;;;;3136284;28;20049;-81
2021/06/29 06:09:24;;;;;;;11.07;5.65;;;23.50;69.90;;;;;;3136916;28;20049;-80
2021/06/29 06:10:56;;;;;;;11.23;5.75;;;23.50;69.70;;;;;;3136651;28;20044;-81
2021/06/29 06:12:29;;;;;;;11.77;6.05;;;23.60;69.80;;;;;;3136672;28;20136;-81
2021/06/29 06:14:00;;;;;;;13.63;5.93;;;23.60;69.80;;;;;;3136932;28;20053;-81
2021/06/29 06:15:31;;;;;;;9.02;5.70;;;23.60;69.80;;;;;;3136196;28;20079;-80
2021/06/29 06:17:03;;;;;;;10.48;5.20;;;23.50;69.70;;;;;;3136603;28;20045;-80
2021/06/29 06:18:33;;;;;;;12.23;5.13;;;23.60;69.80;;;;;;3136740;28;20076;-82
2021/06/29 06:20:07;;;;;;;18.52;6.10;;;23.50;69.70;;;;;;3137374;28;20052;-80
2021/06/29 06:21:38;;;;;;;23.00;6.72;;;23.60;69.90;;;;;;3136741;28;20088;-84
2021/06/29 06:23:10;;;;;;;29.85;6.45;;;23.60;69.80;;;;;;3136782;28;20068;-84
2021/06/29 06:24:41;;;;;;;23.73;6.28;;;23.60;69.60;;;;;;3136378;28;20052;-84
2021/06/29 06:26:13;;;;;;;28.35;6.40;;;23.60;69.60;;;;;;3136339;28;20076;-83
2021/06/29 06:27:48;;;;;;;22.05;5.72;;;23.60;69.50;;;;;;3136866;28;20072;-82
2021/06/29 06:29:18;;;;;;;14.98;5.47;;;23.60;69.40;;;;;;3136371;28;20143;-84
2021/06/29 06:30:50;;;;;;;17.30;5.90;;;23.60;69.20;;;;;;3136394;28;20372;-82
2021/06/29 06:32:21;;;;;;;17.75;5.80;;;23.50;69.40;;;;;;3138013;28;20095;-79
2021/06/29 06:33:53;;;;;;;14.88;6.07;;;23.50;69.40;;;;;;3137845;28;20049;-83
2021/06/29 06:35:25;;;;;;;15.40;5.82;;;23.50;69.40;;;;;;3140774;28;20044;-82
2021/06/29 06:36:56;;;;;;;13.35;6.07;;;23.50;69.50;;;;;;3136787;28;20048;-84
2021/06/29 06:38:28;;;;;;;18.52;5.80;;;23.50;69.40;;;;;;3136610;28;20076;-82
2021/06/29 06:39:59;;;;;;;15.35;5.90;;;23.50;69.40;;;;;;3136614;28;20052;-79
2021/06/29 06:41:31;;;;;;;11.95;5.93;;;23.50;69.30;;;;;;3135984;28;20152;-79
2021/06/29 06:43:04;;;;;;;14.15;5.85;;;23.50;69.40;;;;;;3136129;28;20080;-79
2021/06/29 06:44:35;;;;;;;12.18;5.47;;;23.50;69.60;;;;;;3136501;28;20080;-79
2021/06/29 06:46:08;;;;;;;12.20;5.32;;;23.50;69.60;;;;;;3136203;28;20084;-79
2021/06/29 06:47:40;;;;;;;10.68;5.63;;;23.40;69.60;;;;;;3136288;28;20048;-78
2021/06/29 06:49:11;;;;;;;12.48;5.32;;;23.40;69.60;;;;;;3136425;28;20081;-79
2021/06/29 06:50:42;;;;;;;13.15;6.00;;;23.40;69.80;;;;;;3136554;28;20131;-79
2021/06/29 06:52:13;;;;;;;17.75;6.30;;;23.50;69.40;;;;;;3136306;28;20037;-78
2021/06/29 06:53:46;;;;;;;7.47;5.50;;;23.40;69.40;;;;;;3136182;28;20079;-80
2021/06/29 06:55:19;;;;;;;8.77;6.13;;;23.40;69.50;;;;;;3136191;28;20057;-79
2021/06/29 06:56:52;;;;;;;11.45;5.85;;;23.40;69.70;;;;;;3136398;28;20052;-78
2021/06/29 06:58:25;;;;;;;10.95;6.15;;;23.40;69.80;;;;;;3136220;28;20051;-80
2021/06/29 06:59:57;;;;;;;;;;;23.40;70.10;;;;;;3137001;28;20095;-79
2021/06/29 07:01:28;;;;;;;8.25;6.15;;;23.30;70.00;;;;;;3136741;28;19921;-79
2021/06/29 07:02:59;;;;;;;13.73;6.80;;;23.30;70.40;;;;;;3136161;28;20091;-79
2021/06/29 07:04:30;;;;;;;14.65;6.60;;;23.40;70.20;;;;;;3136559;28;20056;-80
2021/06/29 07:06:01;;;;;;;12.85;5.88;;;23.40;70.20;;;;;;3135990;28;20076;-79
2021/06/29 07:07:32;;;;;;;12.65;5.97;;;23.40;69.80;;;;;;3136340;28;20411;-81
2021/06/29 07:09:05;;;;;;;9.25;5.63;;;23.40;69.90;;;;;;3136148;28;20081;-83
2021/06/29 07:10:36;;;;;;;11.55;6.57;;;23.40;69.90;;;;;;3136267;28;20052;-82
2021/06/29 07:12:09;;;;;;;9.02;6.20;;;23.40;70.10;;;;;;3136252;28;20080;-82
2021/06/29 07:13:42;;;;;;;;;;;23.40;69.80;;;;;;3136902;28;20124;-82
2021/06/29 07:15:13;;;;;;;11.50;5.93;;;23.40;69.70;;;;;;3136052;28;19921;-80
2021/06/29 07:16:44;;;;;;;16.58;6.55;;;23.40;69.70;;;;;;3136024;28;20072;-81
2021/06/29 07:18:16;;;;;;;9.95;6.55;;;23.40;69.80;;;;;;3136207;28;20049;-81
2021/06/29 07:19:48;;;;;;;11.93;6.70;;;23.40;69.80;;;;;;3136078;28;20103;-79
2021/06/29 07:21:25;;;;;;;11.45;7.53;;;23.40;69.90;;;;;;3136634;28;20115;-79
2021/06/29 07:22:57;;;;;;;14.13;7.35;;;23.40;70.60;;;;;;3135504;28;20041;-80
2021/06/29 07:24:28;;;;;;;15.65;8.02;;;23.40;70.70;;;;;;3137245;28;20087;-79
2021/06/29 07:25:59;;;;;;;13.20;7.70;;;23.40;70.70;;;;;;3135780;28;20049;-79
2021/06/29 07:27:31;;;;;;;16.70;8.25;;;23.40;70.60;;;;;;3136630;28;20096;-79
2021/06/29 07:29:04;;;;;;;13.27;8.52;;;23.40;71.10;;;;;;3136594;28;20080;-78
2021/06/29 07:30:36;;;;;;;12.82;7.78;;;23.40;70.80;;;;;;3135870;28;20084;-79
2021/06/29 07:32:08;;;;;;;14.65;8.00;;;23.40;70.70;;;;;;3134511;28;20079;-80
2021/06/29 07:33:40;;;;;;;11.73;8.00;;;23.40;70.80;;;;;;3135405;28;20737;-78
2021/06/29 07:35:12;;;;;;;13.25;8.70;;;23.40;70.80;;;;;;3135737;28;20049;-78
2021/06/29 07:36:44;;;;;;;18.50;8.95;;;23.40;71.10;;;;;;3135205;28;20084;-78
2021/06/29 07:38:15;;;;;;;14.30;8.38;;;23.40;71.50;;;;;;3136191;28;20080;-78
2021/06/29 07:39:46;;;;;;;13.75;8.95;;;23.40;71.30;;;;;;3135695;28;20422;-78
2021/06/29 07:41:18;;;;;;;12.23;7.97;;;23.40;71.60;;;;;;3135289;28;20519;-78
2021/06/29 07:42:51;;;;;;;11.38;8.35;;;23.40;71.60;;;;;;3135646;28;20052;-78
2021/06/29 07:44:24;;;;;;;12.05;8.45;;;23.40;71.60;;;;;;3136035;28;20045;-78
2021/06/29 07:45:55;;;;;;;;;;;23.30;71.80;;;;;;3135925;28;20080;-78
2021/06/29 07:47:27;;;;;;;11.38;8.07;;;23.40;72.20;;;;;;3135351;28;19920;-80
2021/06/29 07:48:58;;;;;;;13.07;8.75;;;23.40;71.80;;;;;;3135628;28;20076;-79
2021/06/29 07:50:30;;;;;;;10.60;9.02;;;23.30;71.70;;;;;;3136116;28;20085;-78
2021/06/29 07:52:01;;;;;;;13.07;9.23;;;23.40;72.00;;;;;;3135811;28;20052;-78
2021/06/29 07:53:33;;;;;;;11.25;9.20;;;23.30;72.00;;;;;;3135587;28;20041;-78
2021/06/29 07:55:04;;;;;;;12.48;9.15;;;23.30;71.80;;;;;;3135665;28;20048;-78
2021/06/29 07:56:37;;;;;;;10.68;8.32;;;23.30;71.90;;;;;;3135325;28;20422;-79
2021/06/29 07:58:09;;;;;;;11.23;8.80;;;23.30;72.10;;;;;;3135893;28;20050;-78
2021/06/29 07:59:41;;;;;;;11.00;8.68;;;23.30;71.90;;;;;;3135694;28;20052;-79
2021/06/29 08:01:13;;;;;;;11.77;8.33;;;23.30;72.30;;;;;;3136231;28;20072;-79